sensor_id;sensor_type;location;lat;lon;timestamp;P1;durP1;ratioP1;P2;durP2;ratioP2
57826;SDS011;43656;57.746;11.780;2023-08-06T00:00:02;3.85;;;2.20;;
57826;SDS011;43656;57.746;11.780;2023-08-06T00:02:28;6.72;;;2.20;;
57826;SDS011;43656;57.746;11.780;2023-08-06T00:04:53;3.67;;;2.00;;
57826;SDS011;43656;57.746;11.780;2023-08-06T00:07:19;4.88;;;1.98;;
57826;SDS011;43656;57.746;11.780;2023-08-06T00:09:44;9.25;;;2.40;;
57826;SDS011;43656;57.746;11.780;2023-08-06T00:12:09;5.55;;;2.20;;
57826;SDS011;43656;57.746;11.780;2023-08-06T00:14:35;6.55;;;2.13;;
57826;SDS011;43656;57.746;11.780;2023-08-06T00:17:00;4.47;;;2.10;;
57826;SDS011;43656;57.746;11.780;2023-08-06T00:19:26;5.05;;;2.30;;
57826;SDS011;43656;57.746;11.780;2023-08-06T00:21:51;5.13;;;1.77;;
57826;SDS011;43656;57.746;11.780;2023-08-06T00:24:16;3.25;;;2.00;;
57826;SDS011;43656;57.746;11.780;2023-08-06T00:26:42;4.30;;;1.98;;
57826;SDS011;43656;57.746;11.780;2023-08-06T00:29:07;7.07;;;2.00;;
57826;SDS011;43656;57.746;11.780;2023-08-06T00:31:32;5.40;;;2.65;;
57826;SDS011;43656;57.746;11.780;2023-08-06T00:33:58;3.25;;;2.17;;
57826;SDS011;43656;57.746;11.780;2023-08-06T00:36:23;6.18;;;2.20;;
57826;SDS011;43656;57.746;11.780;2023-08-06T00:38:48;3.63;;;1.90;;
57826;SDS011;43656;57.746;11.780;2023-08-06T00:41:14;4.25;;;1.88;;
57826;SDS011;43656;57.746;11.780;2023-08-06T00:43:39;8.50;;;2.38;;
57826;SDS011;43656;57.746;11.780;2023-08-06T00:46:05;3.80;;;2.05;;
57826;SDS011;43656;57.746;11.780;2023-08-06T00:48:31;5.70;;;2.55;;
57826;SDS011;43656;57.746;11.780;2023-08-06T00:50:56;2.53;;;2.05;;
57826;SDS011;43656;57.746;11.780;2023-08-06T00:53:22;4.38;;;2.20;;
57826;SDS011;43656;57.746;11.780;2023-08-06T00:55:47;5.70;;;2.15;;
57826;SDS011;43656;57.746;11.780;2023-08-06T00:58:13;4.50;;;2.13;;
57826;SDS011;43656;57.746;11.780;2023-08-06T01:00:41;6.63;;;2.25;;
57826;SDS011;43656;57.746;11.780;2023-08-06T01:03:06;6.22;;;2.28;;
57826;SDS011;43656;57.746;11.780;2023-08-06T01:05:31;4.63;;;2.00;;
57826;SDS011;43656;57.746;11.780;2023-08-06T01:08:19;7.10;;;2.47;;
57826;SDS011;43656;57.746;11.780;2023-08-06T01:10:59;7.70;;;2.15;;
57826;SDS011;43656;57.746;11.780;2023-08-06T01:16:02;3.50;;;2.30;;
57826;SDS011;43656;57.746;11.780;2023-08-06T01:18:30;5.53;;;2.10;;
57826;SDS011;43656;57.746;11.780;2023-08-06T01:20:56;3.35;;;1.95;;
57826;SDS011;43656;57.746;11.780;2023-08-06T01:23:21;5.28;;;2.10;;
57826;SDS011;43656;57.746;11.780;2023-08-06T01:28:18;6.70;;;2.35;;
57826;SDS011;43656;57.746;11.780;2023-08-06T01:30:52;5.00;;;2.50;;
57826;SDS011;43656;57.746;11.780;2023-08-06T01:33:21;4.35;;;2.15;;
57826;SDS011;43656;57.746;11.780;2023-08-06T01:35:48;3.70;;;2.22;;
57826;SDS011;43656;57.746;11.780;2023-08-06T01:38:15;4.55;;;2.25;;
57826;SDS011;43656;57.746;11.780;2023-08-06T01:40:41;5.65;;;2.20;;
57826;SDS011;43656;57.746;11.780;2023-08-06T01:43:06;4.80;;;2.03;;
57826;SDS011;43656;57.746;11.780;2023-08-06T01:45:31;5.78;;;2.58;;
57826;SDS011;43656;57.746;11.780;2023-08-06T01:47:58;10.75;;;2.47;;
57826;SDS011;43656;57.746;11.780;2023-08-06T01:50:23;6.05;;;2.40;;
57826;SDS011;43656;57.746;11.780;2023-08-06T01:52:48;5.18;;;2.60;;
57826;SDS011;43656;57.746;11.780;2023-08-06T01:55:14;6.22;;;2.40;;
57826;SDS011;43656;57.746;11.780;2023-08-06T01:57:39;5.03;;;2.05;;
57826;SDS011;43656;57.746;11.780;2023-08-06T02:00:05;5.25;;;2.20;;
57826;SDS011;43656;57.746;11.780;2023-08-06T02:02:31;4.32;;;2.10;;
57826;SDS011;43656;57.746;11.780;2023-08-06T02:04:56;5.15;;;2.30;;
57826;SDS011;43656;57.746;11.780;2023-08-06T02:07:23;6.47;;;2.20;;
57826;SDS011;43656;57.746;11.780;2023-08-06T02:09:48;4.80;;;2.17;;
57826;SDS011;43656;57.746;11.780;2023-08-06T02:12:13;6.45;;;2.10;;
57826;SDS011;43656;57.746;11.780;2023-08-06T02:14:39;9.82;;;2.28;;
57826;SDS011;43656;57.746;11.780;2023-08-06T02:17:04;7.53;;;2.33;;
57826;SDS011;43656;57.746;11.780;2023-08-06T02:19:30;5.65;;;2.17;;
57826;SDS011;43656;57.746;11.780;2023-08-06T02:21:55;3.42;;;2.20;;
57826;SDS011;43656;57.746;11.780;2023-08-06T02:24:21;6.22;;;2.40;;
57826;SDS011;43656;57.746;11.780;2023-08-06T02:26:46;5.63;;;2.28;;
57826;SDS011;43656;57.746;11.780;2023-08-06T02:29:14;3.95;;;2.22;;
57826;SDS011;43656;57.746;11.780;2023-08-06T02:31:39;5.57;;;2.13;;
57826;SDS011;43656;57.746;11.780;2023-08-06T02:34:05;4.95;;;2.38;;
57826;SDS011;43656;57.746;11.780;2023-08-06T02:36:30;8.50;;;2.13;;
57826;SDS011;43656;57.746;11.780;2023-08-06T02:38:56;4.82;;;2.30;;
57826;SDS011;43656;57.746;11.780;2023-08-06T02:41:21;4.70;;;1.98;;
57826;SDS011;43656;57.746;11.780;2023-08-06T02:43:47;3.33;;;2.05;;
57826;SDS011;43656;57.746;11.780;2023-08-06T02:46:12;9.77;;;2.50;;
57826;SDS011;43656;57.746;11.780;2023-08-06T02:48:37;5.38;;;2.10;;
57826;SDS011;43656;57.746;11.780;2023-08-06T02:51:03;4.53;;;2.10;;
57826;SDS011;43656;57.746;11.780;2023-08-06T02:53:28;3.28;;;2.03;;
57826;SDS011;43656;57.746;11.780;2023-08-06T02:55:54;6.30;;;2.05;;
57826;SDS011;43656;57.746;11.780;2023-08-06T02:58:20;4.28;;;2.40;;
57826;SDS011;43656;57.746;11.780;2023-08-06T03:00:58;8.02;;;1.92;;
57826;SDS011;43656;57.746;11.780;2023-08-06T03:03:32;6.10;;;2.20;;
57826;SDS011;43656;57.746;11.780;2023-08-06T03:05:58;4.95;;;1.92;;
57826;SDS011;43656;57.746;11.780;2023-08-06T03:08:24;4.13;;;1.85;;
57826;SDS011;43656;57.746;11.780;2023-08-06T03:10:50;3.30;;;2.00;;
57826;SDS011;43656;57.746;11.780;2023-08-06T03:13:17;4.57;;;2.00;;
57826;SDS011;43656;57.746;11.780;2023-08-06T03:15:43;5.75;;;2.53;;
57826;SDS011;43656;57.746;11.780;2023-08-06T03:18:08;6.35;;;2.17;;
57826;SDS011;43656;57.746;11.780;2023-08-06T03:20:34;4.07;;;1.95;;
57826;SDS011;43656;57.746;11.780;2023-08-06T03:22:59;4.88;;;1.85;;
57826;SDS011;43656;57.746;11.780;2023-08-06T03:25:24;6.20;;;2.30;;
57826;SDS011;43656;57.746;11.780;2023-08-06T03:27:50;8.15;;;2.25;;
57826;SDS011;43656;57.746;11.780;2023-08-06T03:30:15;4.40;;;2.15;;
57826;SDS011;43656;57.746;11.780;2023-08-06T03:32:41;6.60;;;1.95;;
57826;SDS011;43656;57.746;11.780;2023-08-06T03:35:06;6.32;;;2.28;;
57826;SDS011;43656;57.746;11.780;2023-08-06T03:37:34;3.60;;;2.03;;
57826;SDS011;43656;57.746;11.780;2023-08-06T03:39:59;5.05;;;2.13;;
57826;SDS011;43656;57.746;11.780;2023-08-06T03:42:24;4.22;;;1.88;;
57826;SDS011;43656;57.746;11.780;2023-08-06T03:44:50;4.35;;;2.03;;
57826;SDS011;43656;57.746;11.780;2023-08-06T03:47:15;5.88;;;2.10;;
57826;SDS011;43656;57.746;11.780;2023-08-06T03:49:41;6.10;;;2.10;;
57826;SDS011;43656;57.746;11.780;2023-08-06T03:52:06;5.45;;;1.95;;
57826;SDS011;43656;57.746;11.780;2023-08-06T03:54:32;7.20;;;2.30;;
57826;SDS011;43656;57.746;11.780;2023-08-06T03:56:59;6.35;;;2.60;;
57826;SDS011;43656;57.746;11.780;2023-08-06T03:59:24;3.95;;;2.00;;
57826;SDS011;43656;57.746;11.780;2023-08-06T04:01:50;4.10;;;2.15;;
57826;SDS011;43656;57.746;11.780;2023-08-06T04:04:15;5.70;;;1.90;;
57826;SDS011;43656;57.746;11.780;2023-08-06T04:06:40;5.63;;;1.85;;
57826;SDS011;43656;57.746;11.780;2023-08-06T04:09:06;5.45;;;1.88;;
57826;SDS011;43656;57.746;11.780;2023-08-06T04:11:31;5.13;;;2.08;;
57826;SDS011;43656;57.746;11.780;2023-08-06T04:13:56;4.65;;;2.00;;
57826;SDS011;43656;57.746;11.780;2023-08-06T04:16:22;3.20;;;1.75;;
57826;SDS011;43656;57.746;11.780;2023-08-06T04:18:47;2.50;;;1.52;;
57826;SDS011;43656;57.746;11.780;2023-08-06T04:21:13;4.32;;;1.80;;
57826;SDS011;43656;57.746;11.780;2023-08-06T04:23:38;3.58;;;1.90;;
57826;SDS011;43656;57.746;11.780;2023-08-06T04:26:03;6.85;;;2.05;;
57826;SDS011;43656;57.746;11.780;2023-08-06T04:28:29;3.08;;;1.55;;
57826;SDS011;43656;57.746;11.780;2023-08-06T04:30:55;2.78;;;1.70;;
57826;SDS011;43656;57.746;11.780;2023-08-06T04:33:20;3.85;;;1.67;;
57826;SDS011;43656;57.746;11.780;2023-08-06T04:35:45;4.55;;;1.45;;
57826;SDS011;43656;57.746;11.780;2023-08-06T04:38:11;4.32;;;1.65;;
57826;SDS011;43656;57.746;11.780;2023-08-06T04:40:36;4.65;;;1.73;;
57826;SDS011;43656;57.746;11.780;2023-08-06T04:43:02;6.57;;;1.63;;
57826;SDS011;43656;57.746;11.780;2023-08-06T04:45:27;3.13;;;1.25;;
57826;SDS011;43656;57.746;11.780;2023-08-06T04:47:53;4.63;;;1.80;;
57826;SDS011;43656;57.746;11.780;2023-08-06T04:50:19;3.60;;;1.60;;
57826;SDS011;43656;57.746;11.780;2023-08-06T04:52:45;3.35;;;1.33;;
57826;SDS011;43656;57.746;11.780;2023-08-06T04:55:11;4.88;;;1.85;;
57826;SDS011;43656;57.746;11.780;2023-08-06T04:57:36;3.22;;;1.50;;
57826;SDS011;43656;57.746;11.780;2023-08-06T05:00:01;2.35;;;1.40;;
57826;SDS011;43656;57.746;11.780;2023-08-06T05:02:27;2.35;;;1.38;;
57826;SDS011;43656;57.746;11.780;2023-08-06T05:04:53;2.80;;;1.15;;
57826;SDS011;43656;57.746;11.780;2023-08-06T05:07:18;5.13;;;1.20;;
57826;SDS011;43656;57.746;11.780;2023-08-06T05:09:43;4.68;;;1.30;;
57826;SDS011;43656;57.746;11.780;2023-08-06T05:12:09;2.42;;;1.27;;
57826;SDS011;43656;57.746;11.780;2023-08-06T05:14:34;2.70;;;1.30;;
57826;SDS011;43656;57.746;11.780;2023-08-06T05:17:00;3.38;;;1.20;;
57826;SDS011;43656;57.746;11.780;2023-08-06T05:19:27;6.22;;;1.30;;
57826;SDS011;43656;57.746;11.780;2023-08-06T05:21:52;3.80;;;1.27;;
57826;SDS011;43656;57.746;11.780;2023-08-06T05:24:18;2.22;;;1.27;;
57826;SDS011;43656;57.746;11.780;2023-08-06T05:26:43;2.20;;;1.38;;
57826;SDS011;43656;57.746;11.780;2023-08-06T05:29:11;4.03;;;1.30;;
57826;SDS011;43656;57.746;11.780;2023-08-06T05:31:37;3.33;;;1.40;;
57826;SDS011;43656;57.746;11.780;2023-08-06T05:34:02;3.50;;;1.10;;
57826;SDS011;43656;57.746;11.780;2023-08-06T05:36:28;2.35;;;1.20;;
57826;SDS011;43656;57.746;11.780;2023-08-06T05:38:53;2.17;;;1.05;;
57826;SDS011;43656;57.746;11.780;2023-08-06T05:41:18;3.50;;;1.25;;
57826;SDS011;43656;57.746;11.780;2023-08-06T05:43:44;4.88;;;1.25;;
57826;SDS011;43656;57.746;11.780;2023-08-06T05:46:10;4.22;;;1.20;;
57826;SDS011;43656;57.746;11.780;2023-08-06T05:48:35;1.75;;;1.15;;
57826;SDS011;43656;57.746;11.780;2023-08-06T05:51:01;2.08;;;0.98;;
57826;SDS011;43656;57.746;11.780;2023-08-06T05:53:26;5.60;;;1.30;;
57826;SDS011;43656;57.746;11.780;2023-08-06T05:55:52;3.00;;;1.10;;
57826;SDS011;43656;57.746;11.780;2023-08-06T05:58:17;2.33;;;1.10;;
57826;SDS011;43656;57.746;11.780;2023-08-06T06:00:44;4.55;;;1.55;;
57826;SDS011;43656;57.746;11.780;2023-08-06T06:03:10;2.95;;;1.20;;
57826;SDS011;43656;57.746;11.780;2023-08-06T06:05:37;3.78;;;1.00;;
57826;SDS011;43656;57.746;11.780;2023-08-06T06:08:04;3.65;;;0.90;;
57826;SDS011;43656;57.746;11.780;2023-08-06T06:10:29;2.78;;;1.08;;
57826;SDS011;43656;57.746;11.780;2023-08-06T06:12:55;2.67;;;1.00;;
57826;SDS011;43656;57.746;11.780;2023-08-06T06:15:20;4.38;;;1.20;;
57826;SDS011;43656;57.746;11.780;2023-08-06T06:17:46;3.55;;;1.10;;
57826;SDS011;43656;57.746;11.780;2023-08-06T06:20:12;3.45;;;1.10;;
57826;SDS011;43656;57.746;11.780;2023-08-06T06:22:37;6.00;;;1.17;;
57826;SDS011;43656;57.746;11.780;2023-08-06T06:25:03;1.85;;;1.10;;
57826;SDS011;43656;57.746;11.780;2023-08-06T06:27:28;4.45;;;1.10;;
57826;SDS011;43656;57.746;11.780;2023-08-06T06:29:54;1.98;;;1.00;;
57826;SDS011;43656;57.746;11.780;2023-08-06T06:32:20;3.08;;;0.90;;
57826;SDS011;43656;57.746;11.780;2023-08-06T06:34:46;2.45;;;1.10;;
57826;SDS011;43656;57.746;11.780;2023-08-06T06:37:11;2.80;;;0.98;;
57826;SDS011;43656;57.746;11.780;2023-08-06T06:39:37;3.55;;;1.10;;
57826;SDS011;43656;57.746;11.780;2023-08-06T06:42:02;5.40;;;1.42;;
57826;SDS011;43656;57.746;11.780;2023-08-06T06:44:28;4.28;;;1.25;;
57826;SDS011;43656;57.746;11.780;2023-08-06T06:46:53;2.67;;;1.05;;
57826;SDS011;43656;57.746;11.780;2023-08-06T06:49:18;3.38;;;1.40;;
57826;SDS011;43656;57.746;11.780;2023-08-06T06:51:44;1.90;;;1.08;;
57826;SDS011;43656;57.746;11.780;2023-08-06T06:54:09;8.30;;;1.38;;
57826;SDS011;43656;57.746;11.780;2023-08-06T06:56:35;3.22;;;1.10;;
57826;SDS011;43656;57.746;11.780;2023-08-06T06:59:00;2.70;;;1.05;;
57826;SDS011;43656;57.746;11.780;2023-08-06T07:01:25;3.15;;;1.05;;
57826;SDS011;43656;57.746;11.780;2023-08-06T07:03:51;3.22;;;1.50;;
57826;SDS011;43656;57.746;11.780;2023-08-06T07:06:16;3.75;;;1.10;;
57826;SDS011;43656;57.746;11.780;2023-08-06T07:08:43;4.90;;;1.20;;
57826;SDS011;43656;57.746;11.780;2023-08-06T07:11:09;1.83;;;0.90;;
57826;SDS011;43656;57.746;11.780;2023-08-06T07:13:34;3.88;;;1.27;;
57826;SDS011;43656;57.746;11.780;2023-08-06T07:16:00;3.95;;;0.98;;
57826;SDS011;43656;57.746;11.780;2023-08-06T07:18:25;3.45;;;1.10;;
57826;SDS011;43656;57.746;11.780;2023-08-06T07:20:51;2.42;;;0.90;;
57826;SDS011;43656;57.746;11.780;2023-08-06T07:23:20;5.05;;;0.95;;
57826;SDS011;43656;57.746;11.780;2023-08-06T07:25:46;3.85;;;0.80;;
57826;SDS011;43656;57.746;11.780;2023-08-06T07:28:12;4.68;;;1.00;;
57826;SDS011;43656;57.746;11.780;2023-08-06T07:30:38;4.82;;;1.05;;
57826;SDS011;43656;57.746;11.780;2023-08-06T07:33:04;2.38;;;0.82;;
57826;SDS011;43656;57.746;11.780;2023-08-06T07:35:30;2.47;;;1.08;;
57826;SDS011;43656;57.746;11.780;2023-08-06T07:37:55;3.38;;;1.00;;
57826;SDS011;43656;57.746;11.780;2023-08-06T07:40:21;1.67;;;0.90;;
57826;SDS011;43656;57.746;11.780;2023-08-06T07:42:46;5.82;;;1.08;;
57826;SDS011;43656;57.746;11.780;2023-08-06T07:45:11;5.38;;;0.95;;
57826;SDS011;43656;57.746;11.780;2023-08-06T07:47:37;2.28;;;0.85;;
57826;SDS011;43656;57.746;11.780;2023-08-06T07:50:02;1.95;;;1.00;;
57826;SDS011;43656;57.746;11.780;2023-08-06T07:52:28;1.45;;;0.75;;
57826;SDS011;43656;57.746;11.780;2023-08-06T07:54:53;2.67;;;0.80;;
57826;SDS011;43656;57.746;11.780;2023-08-06T07:57:18;2.47;;;0.90;;
57826;SDS011;43656;57.746;11.780;2023-08-06T07:59:44;2.03;;;0.88;;
57826;SDS011;43656;57.746;11.780;2023-08-06T08:02:09;3.70;;;1.05;;
57826;SDS011;43656;57.746;11.780;2023-08-06T08:04:34;3.05;;;0.80;;
57826;SDS011;43656;57.746;11.780;2023-08-06T08:07:00;5.55;;;1.08;;
57826;SDS011;43656;57.746;11.780;2023-08-06T08:09:25;3.58;;;1.00;;
57826;SDS011;43656;57.746;11.780;2023-08-06T08:11:50;3.55;;;1.00;;
57826;SDS011;43656;57.746;11.780;2023-08-06T08:14:17;2.63;;;1.00;;
57826;SDS011;43656;57.746;11.780;2023-08-06T08:16:42;3.33;;;0.90;;
57826;SDS011;43656;57.746;11.780;2023-08-06T08:19:08;4.55;;;0.90;;
57826;SDS011;43656;57.746;11.780;2023-08-06T08:21:35;2.67;;;0.95;;
57826;SDS011;43656;57.746;11.780;2023-08-06T08:24:00;1.40;;;0.77;;
57826;SDS011;43656;57.746;11.780;2023-08-06T08:26:26;5.45;;;0.98;;
57826;SDS011;43656;57.746;11.780;2023-08-06T08:28:53;5.10;;;0.88;;
57826;SDS011;43656;57.746;11.780;2023-08-06T08:31:18;3.42;;;0.90;;
57826;SDS011;43656;57.746;11.780;2023-08-06T08:33:44;4.38;;;0.93;;
57826;SDS011;43656;57.746;11.780;2023-08-06T08:36:09;2.53;;;1.02;;
57826;SDS011;43656;57.746;11.780;2023-08-06T08:38:35;1.77;;;0.70;;
57826;SDS011;43656;57.746;11.780;2023-08-06T08:41:00;2.45;;;0.90;;
57826;SDS011;43656;57.746;11.780;2023-08-06T08:43:26;2.65;;;0.80;;
57826;SDS011;43656;57.746;11.780;2023-08-06T08:45:52;2.67;;;0.93;;
57826;SDS011;43656;57.746;11.780;2023-08-06T08:48:24;2.97;;;1.00;;
57826;SDS011;43656;57.746;11.780;2023-08-06T08:50:50;3.90;;;0.93;;
57826;SDS011;43656;57.746;11.780;2023-08-06T08:53:15;3.65;;;1.00;;
57826;SDS011;43656;57.746;11.780;2023-08-06T08:55:42;3.63;;;0.95;;
57826;SDS011;43656;57.746;11.780;2023-08-06T08:58:09;2.40;;;0.90;;
57826;SDS011;43656;57.746;11.780;2023-08-06T09:00:35;3.72;;;0.85;;
57826;SDS011;43656;57.746;11.780;2023-08-06T09:03:01;3.95;;;0.93;;
57826;SDS011;43656;57.746;11.780;2023-08-06T09:05:31;2.88;;;1.00;;
57826;SDS011;43656;57.746;11.780;2023-08-06T09:07:59;1.83;;;0.90;;
57826;SDS011;43656;57.746;11.780;2023-08-06T09:10:28;2.97;;;0.90;;
57826;SDS011;43656;57.746;11.780;2023-08-06T09:12:53;3.97;;;0.80;;
57826;SDS011;43656;57.746;11.780;2023-08-06T09:15:21;3.80;;;0.90;;
57826;SDS011;43656;57.746;11.780;2023-08-06T09:17:49;2.25;;;0.70;;
57826;SDS011;43656;57.746;11.780;2023-08-06T09:20:15;1.80;;;0.80;;
57826;SDS011;43656;57.746;11.780;2023-08-06T09:22:41;4.93;;;0.90;;
57826;SDS011;43656;57.746;11.780;2023-08-06T09:25:07;3.03;;;1.00;;
57826;SDS011;43656;57.746;11.780;2023-08-06T09:27:36;2.05;;;1.00;;
57826;SDS011;43656;57.746;11.780;2023-08-06T09:30:03;2.55;;;0.95;;
57826;SDS011;43656;57.746;11.780;2023-08-06T09:32:45;2.53;;;1.02;;
57826;SDS011;43656;57.746;11.780;2023-08-06T09:35:16;4.00;;;1.05;;
57826;SDS011;43656;57.746;11.780;2023-08-06T09:37:42;1.70;;;1.00;;
57826;SDS011;43656;57.746;11.780;2023-08-06T09:40:26;2.45;;;0.82;;
57826;SDS011;43656;57.746;11.780;2023-08-06T09:42:53;3.58;;;1.10;;
57826;SDS011;43656;57.746;11.780;2023-08-06T09:45:19;5.38;;;0.90;;
57826;SDS011;43656;57.746;11.780;2023-08-06T09:47:46;3.83;;;1.13;;
57826;SDS011;43656;57.746;11.780;2023-08-06T09:50:18;2.95;;;0.90;;
57826;SDS011;43656;57.746;11.780;2023-08-06T09:52:46;4.22;;;1.02;;
57826;SDS011;43656;57.746;11.780;2023-08-06T09:55:12;1.58;;;0.90;;
57826;SDS011;43656;57.746;11.780;2023-08-06T09:57:42;2.80;;;0.95;;
57826;SDS011;43656;57.746;11.780;2023-08-06T10:00:11;4.15;;;1.00;;
57826;SDS011;43656;57.746;11.780;2023-08-06T10:02:37;3.90;;;1.05;;
57826;SDS011;43656;57.746;11.780;2023-08-06T10:05:04;5.38;;;1.00;;
57826;SDS011;43656;57.746;11.780;2023-08-06T10:07:30;4.90;;;1.13;;
57826;SDS011;43656;57.746;11.780;2023-08-06T10:09:55;3.00;;;1.10;;
57826;SDS011;43656;57.746;11.780;2023-08-06T10:12:21;2.95;;;1.00;;
57826;SDS011;43656;57.746;11.780;2023-08-06T10:14:50;2.88;;;0.98;;
57826;SDS011;43656;57.746;11.780;2023-08-06T10:17:16;3.83;;;1.10;;
57826;SDS011;43656;57.746;11.780;2023-08-06T10:19:42;1.80;;;1.05;;
57826;SDS011;43656;57.746;11.780;2023-08-06T10:22:08;5.20;;;1.10;;
57826;SDS011;43656;57.746;11.780;2023-08-06T10:24:56;2.50;;;1.10;;
57826;SDS011;43656;57.746;11.780;2023-08-06T10:27:30;2.17;;;0.90;;
57826;SDS011;43656;57.746;11.780;2023-08-06T10:32:54;4.40;;;1.20;;
57826;SDS011;43656;57.746;11.780;2023-08-06T10:38:03;2.20;;;0.90;;
57826;SDS011;43656;57.746;11.780;2023-08-06T10:40:30;3.60;;;1.10;;
57826;SDS011;43656;57.746;11.780;2023-08-06T10:43:00;3.50;;;1.10;;
57826;SDS011;43656;57.746;11.780;2023-08-06T10:45:26;3.22;;;1.13;;
57826;SDS011;43656;57.746;11.780;2023-08-06T10:47:54;3.42;;;1.20;;
57826;SDS011;43656;57.746;11.780;2023-08-06T10:50:21;3.25;;;1.10;;
57826;SDS011;43656;57.746;11.780;2023-08-06T10:52:47;3.03;;;1.08;;
57826;SDS011;43656;57.746;11.780;2023-08-06T10:55:13;3.13;;;1.13;;
57826;SDS011;43656;57.746;11.780;2023-08-06T10:57:39;4.15;;;1.10;;
57826;SDS011;43656;57.746;11.780;2023-08-06T11:00:05;6.15;;;1.20;;
57826;SDS011;43656;57.746;11.780;2023-08-06T11:02:33;3.40;;;1.15;;
57826;SDS011;43656;57.746;11.780;2023-08-06T11:05:09;3.05;;;1.05;;
57826;SDS011;43656;57.746;11.780;2023-08-06T11:07:35;1.70;;;1.10;;
57826;SDS011;43656;57.746;11.780;2023-08-06T11:10:02;3.97;;;1.20;;
57826;SDS011;43656;57.746;11.780;2023-08-06T11:12:29;2.65;;;1.05;;
57826;SDS011;43656;57.746;11.780;2023-08-06T11:14:54;3.30;;;0.98;;
57826;SDS011;43656;57.746;11.780;2023-08-06T11:17:21;3.58;;;1.00;;
57826;SDS011;43656;57.746;11.780;2023-08-06T11:19:46;5.90;;;1.52;;
57826;SDS011;43656;57.746;11.780;2023-08-06T11:22:12;2.05;;;1.20;;
57826;SDS011;43656;57.746;11.780;2023-08-06T11:24:37;2.63;;;1.05;;
57826;SDS011;43656;57.746;11.780;2023-08-06T11:27:10;1.98;;;1.00;;
57826;SDS011;43656;57.746;11.780;2023-08-06T11:29:37;4.87;;;1.67;;
57826;SDS011;43656;57.746;11.780;2023-08-06T11:32:04;3.25;;;1.00;;
57826;SDS011;43656;57.746;11.780;2023-08-06T11:34:30;4.55;;;1.52;;
57826;SDS011;43656;57.746;11.780;2023-08-06T11:36:56;4.65;;;1.42;;
57826;SDS011;43656;57.746;11.780;2023-08-06T11:39:25;3.45;;;1.50;;
57826;SDS011;43656;57.746;11.780;2023-08-06T11:41:50;3.03;;;1.30;;
57826;SDS011;43656;57.746;11.780;2023-08-06T11:44:16;3.97;;;1.20;;
57826;SDS011;43656;57.746;11.780;2023-08-06T11:46:54;2.45;;;0.90;;
57826;SDS011;43656;57.746;11.780;2023-08-06T11:49:43;4.30;;;1.10;;
57826;SDS011;43656;57.746;11.780;2023-08-06T11:52:17;4.78;;;1.10;;
57826;SDS011;43656;57.746;11.780;2023-08-06T11:54:47;6.38;;;1.38;;
57826;SDS011;43656;57.746;11.780;2023-08-06T11:57:26;3.28;;;1.00;;
57826;SDS011;43656;57.746;11.780;2023-08-06T11:59:54;2.83;;;1.25;;
57826;SDS011;43656;57.746;11.780;2023-08-06T12:02:20;2.33;;;1.10;;
57826;SDS011;43656;57.746;11.780;2023-08-06T12:07:49;5.38;;;1.20;;
57826;SDS011;43656;57.746;11.780;2023-08-06T12:10:16;1.92;;;1.10;;
57826;SDS011;43656;57.746;11.780;2023-08-06T12:12:42;3.47;;;1.10;;
57826;SDS011;43656;57.746;11.780;2023-08-06T12:15:08;3.20;;;1.20;;
57826;SDS011;43656;57.746;11.780;2023-08-06T12:17:35;4.50;;;1.10;;
57826;SDS011;43656;57.746;11.780;2023-08-06T12:20:02;4.63;;;1.25;;
57826;SDS011;43656;57.746;11.780;2023-08-06T12:22:29;3.75;;;1.20;;
57826;SDS011;43656;57.746;11.780;2023-08-06T12:24:59;3.05;;;1.10;;
57826;SDS011;43656;57.746;11.780;2023-08-06T12:27:25;3.55;;;1.00;;
57826;SDS011;43656;57.746;11.780;2023-08-06T12:29:51;7.38;;;1.30;;
57826;SDS011;43656;57.746;11.780;2023-08-06T12:32:17;2.15;;;0.90;;
57826;SDS011;43656;57.746;11.780;2023-08-06T12:34:42;3.47;;;1.00;;
57826;SDS011;43656;57.746;11.780;2023-08-06T12:37:08;2.78;;;1.00;;
57826;SDS011;43656;57.746;11.780;2023-08-06T12:39:34;4.53;;;1.30;;
57826;SDS011;43656;57.746;11.780;2023-08-06T12:42:00;6.75;;;1.10;;
57826;SDS011;43656;57.746;11.780;2023-08-06T12:44:27;2.47;;;1.25;;
57826;SDS011;43656;57.746;11.780;2023-08-06T12:46:52;2.22;;;1.13;;
57826;SDS011;43656;57.746;11.780;2023-08-06T12:49:18;6.05;;;1.00;;
57826;SDS011;43656;57.746;11.780;2023-08-06T12:51:46;4.55;;;1.20;;
57826;SDS011;43656;57.746;11.780;2023-08-06T12:54:18;4.40;;;0.95;;
57826;SDS011;43656;57.746;11.780;2023-08-06T12:56:45;3.60;;;1.23;;
57826;SDS011;43656;57.746;11.780;2023-08-06T12:59:11;5.53;;;1.40;;
57826;SDS011;43656;57.746;11.780;2023-08-06T13:01:37;4.68;;;1.10;;
57826;SDS011;43656;57.746;11.780;2023-08-06T13:04:03;2.83;;;1.25;;
57826;SDS011;43656;57.746;11.780;2023-08-06T13:06:29;3.05;;;1.15;;
57826;SDS011;43656;57.746;11.780;2023-08-06T13:08:55;2.22;;;1.02;;
57826;SDS011;43656;57.746;11.780;2023-08-06T13:11:22;3.22;;;0.90;;
57826;SDS011;43656;57.746;11.780;2023-08-06T13:13:47;1.90;;;1.10;;
57826;SDS011;43656;57.746;11.780;2023-08-06T13:16:13;1.92;;;0.88;;
57826;SDS011;43656;57.746;11.780;2023-08-06T13:18:38;2.75;;;1.10;;
57826;SDS011;43656;57.746;11.780;2023-08-06T13:21:04;2.75;;;0.90;;
57826;SDS011;43656;57.746;11.780;2023-08-06T13:23:29;2.72;;;1.00;;
57826;SDS011;43656;57.746;11.780;2023-08-06T13:25:54;2.83;;;1.15;;
57826;SDS011;43656;57.746;11.780;2023-08-06T13:28:20;2.80;;;0.85;;
57826;SDS011;43656;57.746;11.780;2023-08-06T13:30:46;3.63;;;0.98;;
57826;SDS011;43656;57.746;11.780;2023-08-06T13:33:11;2.78;;;1.00;;
57826;SDS011;43656;57.746;11.780;2023-08-06T13:35:37;2.25;;;1.00;;
57826;SDS011;43656;57.746;11.780;2023-08-06T13:38:03;2.85;;;1.10;;
57826;SDS011;43656;57.746;11.780;2023-08-06T13:40:29;2.17;;;1.00;;
57826;SDS011;43656;57.746;11.780;2023-08-06T13:42:58;2.50;;;1.10;;
57826;SDS011;43656;57.746;11.780;2023-08-06T13:45:23;3.10;;;1.33;;
57826;SDS011;43656;57.746;11.780;2023-08-06T13:47:49;5.43;;;1.55;;
57826;SDS011;43656;57.746;11.780;2023-08-06T13:50:15;3.15;;;1.20;;
57826;SDS011;43656;57.746;11.780;2023-08-06T13:52:40;3.92;;;1.27;;
57826;SDS011;43656;57.746;11.780;2023-08-06T13:55:05;4.43;;;1.02;;
57826;SDS011;43656;57.746;11.780;2023-08-06T13:57:31;3.35;;;0.90;;
57826;SDS011;43656;57.746;11.780;2023-08-06T13:59:57;4.00;;;0.90;;
57826;SDS011;43656;57.746;11.780;2023-08-06T14:02:22;2.97;;;0.90;;
57826;SDS011;43656;57.746;11.780;2023-08-06T14:04:48;4.20;;;0.98;;
57826;SDS011;43656;57.746;11.780;2023-08-06T14:07:13;3.80;;;1.00;;
57826;SDS011;43656;57.746;11.780;2023-08-06T14:09:39;2.15;;;0.90;;
57826;SDS011;43656;57.746;11.780;2023-08-06T14:12:05;3.92;;;1.15;;
57826;SDS011;43656;57.746;11.780;2023-08-06T14:14:31;4.45;;;0.93;;
57826;SDS011;43656;57.746;11.780;2023-08-06T14:16:57;5.57;;;1.10;;
57826;SDS011;43656;57.746;11.780;2023-08-06T14:19:22;2.35;;;0.80;;
57826;SDS011;43656;57.746;11.780;2023-08-06T14:21:48;3.88;;;1.00;;
57826;SDS011;43656;57.746;11.780;2023-08-06T14:24:13;3.75;;;1.40;;
57826;SDS011;43656;57.746;11.780;2023-08-06T14:26:39;4.25;;;0.90;;
57826;SDS011;43656;57.746;11.780;2023-08-06T14:29:04;4.75;;;0.98;;
57826;SDS011;43656;57.746;11.780;2023-08-06T14:31:30;5.00;;;1.08;;
57826;SDS011;43656;57.746;11.780;2023-08-06T14:33:55;5.78;;;1.00;;
57826;SDS011;43656;57.746;11.780;2023-08-06T14:36:20;1.90;;;0.70;;
57826;SDS011;43656;57.746;11.780;2023-08-06T14:38:46;3.08;;;1.02;;
57826;SDS011;43656;57.746;11.780;2023-08-06T14:41:11;1.92;;;1.05;;